createdAt,value
2017-09-13T00:00:19.758Z,14.85
2017-09-13T00:01:19.777Z,14.82
2017-09-13T00:02:19.792Z,14.81
2017-09-13T00:03:19.906Z,14.77
2017-09-13T00:04:19.507Z,14.72
2017-09-13T00:05:20.396Z,14.84
2017-09-13T00:06:20.397Z,14.84
2017-09-13T00:07:19.561Z,14.78
2017-09-13T00:08:20.321Z,14.86
2017-09-13T00:09:20.401Z,14.85
2017-09-13T00:10:19.639Z,14.86
2017-09-13T00:11:19.982Z,14.73
2017-09-13T00:12:19.657Z,14.77
2017-09-13T00:13:20.005Z,14.78
2017-09-13T00:14:19.710Z,14.78
2017-09-13T00:15:20.366Z,14.7
2017-09-13T00:16:20.061Z,14.77
2017-09-13T00:17:20.407Z,14.72
2017-09-13T00:18:20.096Z,14.73
2017-09-13T00:19:20.123Z,14.68
2017-09-13T00:20:20.134Z,14.77
2017-09-13T00:21:20.167Z,14.72
2017-09-13T00:22:20.498Z,14.68
2017-09-13T00:23:20.401Z,14.72
2017-09-13T00:24:20.531Z,14.66
2017-09-13T00:25:20.970Z,14.63
2017-09-13T00:26:20.778Z,14.66
2017-09-13T00:27:20.447Z,14.62
2017-09-13T00:28:20.465Z,14.7
2017-09-13T00:29:20.788Z,14.63
2017-09-13T00:30:20.466Z,14.59
2017-09-13T00:31:20.191Z,14.62
2017-09-13T00:32:20.361Z,14.54
2017-09-13T00:33:20.515Z,14.54
2017-09-13T00:34:20.180Z,14.58
2017-09-13T00:35:20.738Z,14.55
2017-09-13T00:36:20.189Z,14.59
2017-09-13T00:37:20.542Z,14.53
2017-09-13T00:38:20.798Z,14.47
2017-09-13T00:39:20.495Z,14.48
2017-09-13T00:40:20.839Z,14.54
2017-09-13T00:41:20.532Z,14.51
2017-09-13T00:42:20.555Z,14.53
2017-09-13T00:43:20.886Z,14.58
2017-09-13T00:44:20.262Z,14.47
2017-09-13T00:45:20.611Z,14.5
2017-09-13T00:46:20.948Z,14.51
2017-09-13T00:47:20.315Z,14.51
2017-09-13T00:48:20.661Z,14.51
2017-09-13T00:49:21.011Z,14.53
2017-09-13T00:50:20.377Z,14.51
2017-09-13T00:51:20.397Z,14.43
2017-09-13T00:52:20.534Z,14.44
2017-09-13T00:53:20.432Z,14.44
2017-09-13T00:54:20.774Z,14.41
2017-09-13T00:55:21.244Z,14.41
2017-09-13T00:56:21.136Z,14.44
2017-09-13T00:57:21.157Z,14.44
2017-09-13T00:58:21.178Z,14.43
2017-09-13T00:59:21.316Z,14.47
2017-09-13T01:00:20.564Z,14.47
2017-09-13T01:01:20.608Z,14.45
2017-09-13T01:02:20.602Z,14.37
2017-09-13T01:03:21.079Z,14.45
2017-09-13T01:04:20.972Z,14.45
2017-09-13T01:05:21.391Z,14.33
2017-09-13T01:06:20.694Z,14.47
2017-09-13T01:07:21.020Z,14.44
2017-09-13T01:08:21.367Z,14.37
2017-09-13T01:09:21.373Z,14.4
2017-09-13T01:10:21.406Z,14.32
2017-09-13T01:11:21.462Z,14.32
2017-09-13T01:12:21.641Z,14.41
2017-09-13T01:13:21.457Z,14.35
2017-09-13T01:14:21.469Z,14.3
2017-09-13T01:15:21.176Z,14.33
2017-09-13T01:16:21.281Z,14.32
2017-09-13T01:17:21.385Z,14.35
2017-09-13T01:18:21.063Z,14.35
2017-09-13T01:19:21.256Z,14.28
2017-09-13T01:20:21.256Z,14.26
2017-09-13T01:21:21.642Z,14.26
2017-09-13T01:22:21.619Z,14.28
2017-09-13T01:23:21.639Z,14.26
2017-09-13T01:24:21.437Z,14.29
2017-09-13T01:25:21.679Z,14.25
2017-09-13T01:26:21.119Z,14.26
2017-09-13T01:27:21.725Z,14.23
2017-09-13T01:28:21.151Z,14.26
2017-09-13T01:29:21.766Z,14.25
2017-09-13T01:30:21.852Z,14.23
2017-09-13T01:31:21.883Z,14.26
2017-09-13T01:32:21.920Z,14.28
2017-09-13T01:33:21.523Z,14.26
2017-09-13T01:34:21.196Z,14.23
2017-09-13T01:35:21.535Z,14.29
2017-09-13T01:36:21.564Z,14.26
2017-09-13T01:37:21.579Z,14.23
2017-09-13T01:38:21.931Z,14.23
2017-09-13T01:39:21.617Z,14.23
2017-09-13T01:40:21.632Z,14.26
2017-09-13T01:41:21.646Z,14.15
2017-09-13T01:42:21.990Z,14.12
2017-09-13T01:43:22.009Z,14.15
2017-09-13T01:44:21.711Z,14.12
2017-09-13T01:45:21.722Z,14.12
2017-09-13T01:46:21.767Z,14.22
2017-09-13T01:47:21.764Z,14.18
2017-09-13T01:48:21.773Z,14.12
2017-09-13T01:49:22.129Z,14.22
2017-09-13T01:50:22.139Z,14.22
2017-09-13T01:51:22.160Z,14.12
2017-09-13T01:52:22.177Z,14.11
2017-09-13T01:53:22.217Z,14.12
2017-09-13T01:54:21.890Z,14.1
2017-09-13T01:55:22.306Z,14.17
2017-09-13T01:56:22.245Z,14.28
2017-09-13T01:57:21.941Z,14.18
2017-09-13T01:58:21.961Z,14.15
2017-09-13T01:59:21.979Z,14.2
2017-09-13T02:00:22.022Z,14.25
2017-09-13T02:01:22.347Z,14.17
2017-09-13T02:02:22.073Z,14.18
2017-09-13T02:03:22.088Z,14.1
2017-09-13T02:04:22.076Z,14.18
2017-09-13T02:05:22.089Z,14.03
2017-09-13T02:06:22.435Z,14.14
2017-09-13T02:07:22.456Z,14.08
2017-09-13T02:08:22.481Z,14.14
2017-09-13T02:09:22.491Z,14.14
2017-09-13T02:10:22.505Z,14.04
2017-09-13T02:11:22.207Z,14.15
2017-09-13T02:12:22.224Z,14.11
2017-09-13T02:13:22.561Z,14.12
2017-09-13T02:14:21.939Z,14.07
2017-09-13T02:15:22.280Z,14.08
2017-09-13T02:16:22.316Z,14.1
2017-09-13T02:17:22.636Z,14.05
2017-09-13T02:18:22.008Z,14.07
2017-09-13T02:19:22.024Z,14.11
2017-09-13T02:20:22.699Z,14.11
2017-09-13T02:21:22.704Z,14.1
2017-09-13T02:22:22.402Z,14.04
2017-09-13T02:23:22.129Z,14.03
2017-09-13T02:24:22.452Z,14.07
2017-09-13T02:25:22.658Z,14.07
2017-09-13T02:26:22.802Z,14.07
2017-09-13T02:27:22.820Z,14.05
2017-09-13T02:28:22.521Z,14.03
2017-09-13T02:29:22.210Z,14.08
2017-09-13T02:30:22.229Z,14
2017-09-13T02:31:22.248Z,14.04
2017-09-13T02:32:22.590Z,14.04
2017-09-13T02:33:22.303Z,14.04
2017-09-13T02:34:22.629Z,14.05
2017-09-13T02:35:22.643Z,14
2017-09-13T02:36:22.660Z,14.08
2017-09-13T02:37:23.024Z,14.03
2017-09-13T02:38:22.720Z,14.05
2017-09-13T02:39:22.736Z,14
2017-09-13T02:40:22.415Z,13.96
2017-09-13T02:41:22.752Z,14.03
2017-09-13T02:42:22.771Z,14.04
2017-09-13T02:43:22.793Z,14.05
2017-09-13T02:44:22.823Z,14
2017-09-13T02:45:22.506Z,14.05
2017-09-13T02:46:23.173Z,14.03
2017-09-13T02:47:22.888Z,13.95
2017-09-13T02:48:22.878Z,14
2017-09-13T02:49:22.900Z,14.07
2017-09-13T02:50:23.245Z,13.95
2017-09-13T02:51:22.938Z,13.95
2017-09-13T02:52:23.289Z,14.04
2017-09-13T02:53:22.975Z,14.04
2017-09-13T02:54:23.128Z,13.95
2017-09-13T02:55:22.774Z,14.05
2017-09-13T02:56:22.958Z,14.04
2017-09-13T02:57:22.726Z,14.04
2017-09-13T02:58:23.242Z,13.9
2017-09-13T02:59:22.760Z,13.9
2017-09-13T03:00:22.777Z,13.99
2017-09-13T03:01:22.867Z,13.93
2017-09-13T03:02:22.811Z,14.04
2017-09-13T03:03:22.833Z,13.96
2017-09-13T03:04:23.565Z,13.95
2017-09-13T03:05:23.191Z,14.03
2017-09-13T03:06:22.890Z,13.99
2017-09-13T03:07:23.234Z,13.92
2017-09-13T03:08:23.251Z,13.9
2017-09-13T03:09:23.473Z,14
2017-09-13T03:10:23.280Z,13.93
2017-09-13T03:11:23.305Z,13.95
2017-09-13T03:12:23.328Z,13.93
2017-09-13T03:13:23.656Z,13.99
2017-09-13T03:14:23.359Z,13.92
2017-09-13T03:15:23.800Z,13.95
2017-09-13T03:16:23.069Z,13.92
2017-09-13T03:17:23.409Z,13.9
2017-09-13T03:18:23.433Z,13.93
2017-09-13T03:19:23.457Z,13.95
2017-09-13T03:20:23.149Z,13.92
2017-09-13T03:21:23.689Z,13.97
2017-09-13T03:22:23.829Z,13.93
2017-09-13T03:23:23.195Z,13.95
2017-09-13T03:24:23.538Z,13.95
2017-09-13T03:25:23.564Z,13.95
2017-09-13T03:26:23.891Z,13.9
2017-09-13T03:27:23.603Z,13.89
2017-09-13T03:28:23.309Z,13.92
2017-09-13T03:29:23.634Z,13.87
2017-09-13T03:30:23.984Z,13.99
2017-09-13T03:31:23.671Z,13.86
2017-09-13T03:32:23.687Z,13.86
2017-09-13T03:33:24.033Z,13.87
2017-09-13T03:34:23.718Z,13.9
2017-09-13T03:35:24.252Z,13.85
2017-09-13T03:36:23.759Z,13.89
2017-09-13T03:37:23.453Z,13.9
2017-09-13T03:38:23.746Z,13.9
2017-09-13T03:39:23.824Z,13.85
2017-09-13T03:40:23.927Z,13.87
2017-09-13T03:41:23.571Z,13.85
2017-09-13T03:42:23.545Z,13.87
2017-09-13T03:43:23.980Z,13.87
2017-09-13T03:44:23.907Z,13.93
2017-09-13T03:45:24.050Z,13.95
2017-09-13T03:46:23.720Z,13.89
2017-09-13T03:47:23.891Z,13.92
2017-09-13T03:48:24.530Z,13.9
2017-09-13T03:49:24.427Z,13.87
2017-09-13T03:50:24.542Z,13.86
2017-09-13T03:51:24.577Z,13.93
2017-09-13T03:52:24.506Z,13.86
2017-09-13T03:53:24.543Z,13.86
2017-09-13T03:54:24.057Z,13.92
2017-09-13T03:55:24.187Z,13.85
2017-09-13T03:56:24.262Z,13.86
2017-09-13T03:57:24.465Z,13.87
2017-09-13T03:58:24.285Z,13.9
2017-09-13T03:59:24.272Z,13.85
2017-09-13T04:00:24.522Z,13.89
2017-09-13T04:01:24.219Z,13.9
2017-09-13T04:02:24.322Z,13.86
2017-09-13T04:03:24.259Z,13.9
2017-09-13T04:04:24.273Z,13.89
2017-09-13T04:05:24.663Z,13.86
2017-09-13T04:06:24.671Z,13.93
2017-09-13T04:07:24.004Z,13.92
2017-09-13T04:08:24.016Z,13.86
2017-09-13T04:09:24.039Z,13.85
2017-09-13T04:10:24.479Z,13.92
2017-09-13T04:11:24.506Z,13.9
2017-09-13T04:12:24.090Z,13.97
2017-09-13T04:13:24.516Z,13.9
2017-09-13T04:14:24.815Z,13.87
2017-09-13T04:15:24.814Z,13.9
2017-09-13T04:16:24.814Z,13.9
2017-09-13T04:17:24.502Z,13.9
2017-09-13T04:18:24.516Z,13.9
2017-09-13T04:19:24.577Z,13.97
2017-09-13T04:20:24.881Z,13.99
2017-09-13T04:21:24.667Z,13.95
2017-09-13T04:22:24.603Z,13.89
2017-09-13T04:23:24.618Z,14
2017-09-13T04:24:24.735Z,13.92
2017-09-13T04:25:25.218Z,14
2017-09-13T04:26:24.820Z,13.92
2017-09-13T04:27:24.382Z,13.9
2017-09-13T04:28:24.708Z,13.89
2017-09-13T04:29:24.397Z,13.93
2017-09-13T04:30:24.747Z,13.97
2017-09-13T04:31:25.082Z,14.04
2017-09-13T04:32:24.780Z,13.95
2017-09-13T04:33:24.796Z,13.97
2017-09-13T04:34:25.131Z,13.99
2017-09-13T04:35:24.506Z,14
2017-09-13T04:36:24.521Z,14
2017-09-13T04:37:24.868Z,14.08
2017-09-13T04:38:24.888Z,14.04
2017-09-13T04:39:24.902Z,14.04
2017-09-13T04:40:24.930Z,14.07
2017-09-13T04:41:24.616Z,14
2017-09-13T04:42:24.959Z,14.04
2017-09-13T04:43:25.304Z,14.08
2017-09-13T04:44:25.326Z,14.07
2017-09-13T04:45:24.699Z,14.05
2017-09-13T04:46:25.026Z,14
2017-09-13T04:47:25.048Z,14.05
2017-09-13T04:48:25.421Z,14.07
2017-09-13T04:49:25.086Z,14.07
2017-09-13T04:50:25.426Z,14.04
2017-09-13T04:51:25.444Z,14.07
2017-09-13T04:52:24.820Z,14.05
2017-09-13T04:53:24.836Z,14.1
2017-09-13T04:54:25.175Z,14.14
2017-09-13T04:55:25.195Z,14.11
2017-09-13T04:56:25.211Z,14.15
2017-09-13T04:57:25.229Z,14.14
2017-09-13T04:58:25.567Z,14.18
2017-09-13T04:59:24.941Z,14.22
2017-09-13T05:00:25.296Z,14.2
2017-09-13T05:01:25.622Z,14.12
2017-09-13T05:02:25.002Z,14.18
2017-09-13T05:03:25.660Z,14.05
2017-09-13T05:04:25.680Z,14.2
2017-09-13T05:05:25.702Z,14.03
2017-09-13T05:06:25.394Z,14.11
2017-09-13T05:07:25.089Z,14.17
2017-09-13T05:08:25.434Z,14.17
2017-09-13T05:09:25.129Z,14.26
2017-09-13T05:10:25.487Z,14.22
2017-09-13T05:11:25.691Z,14.26
2017-09-13T05:12:25.671Z,14.18
2017-09-13T05:13:25.532Z,14.14
2017-09-13T05:14:25.634Z,14.17
2017-09-13T05:15:25.932Z,14.22
2017-09-13T05:16:25.903Z,14.26
2017-09-13T05:17:25.637Z,14.2
2017-09-13T05:18:25.941Z,14.12
2017-09-13T05:19:25.953Z,14.25
2017-09-13T05:20:25.675Z,14.26
2017-09-13T05:21:25.993Z,14.23
2017-09-13T05:22:26.013Z,14.26
2017-09-13T05:23:25.712Z,14.22
2017-09-13T05:24:25.726Z,14.22
2017-09-13T05:25:27.219Z,14.26
2017-09-13T05:26:25.821Z,14.3
2017-09-13T05:27:26.100Z,14.26
2017-09-13T05:28:26.131Z,14.23
2017-09-13T05:29:26.143Z,14.3
2017-09-13T05:30:25.510Z,14.25
2017-09-13T05:31:25.843Z,14.26
2017-09-13T05:32:26.197Z,14.29
2017-09-13T05:33:26.221Z,14.3
2017-09-13T05:34:25.905Z,14.28
2017-09-13T05:35:25.961Z,14.25
2017-09-13T05:36:25.964Z,14.3
2017-09-13T05:37:25.962Z,14.35
2017-09-13T05:38:25.652Z,14.33
2017-09-13T05:39:25.997Z,14.35
2017-09-13T05:40:26.015Z,14.29
2017-09-13T05:41:26.365Z,14.37
2017-09-13T05:42:25.748Z,14.32
2017-09-13T05:43:26.074Z,14.45
2017-09-13T05:44:26.091Z,14.45
2017-09-13T05:45:25.782Z,14.47
2017-09-13T05:46:26.125Z,14.45
2017-09-13T05:47:26.142Z,14.48
2017-09-13T05:48:26.160Z,14.43
2017-09-13T05:49:26.183Z,14.44
2017-09-13T05:50:26.198Z,14.43
2017-09-13T05:51:25.948Z,14.43
2017-09-13T05:52:26.563Z,14.5
2017-09-13T05:53:26.578Z,14.51
2017-09-13T05:54:26.277Z,14.51
2017-09-13T05:55:26.619Z,14.51
2017-09-13T05:56:26.651Z,14.45
2017-09-13T05:57:26.334Z,14.58
2017-09-13T05:58:26.685Z,14.5
2017-09-13T05:59:26.369Z,14.51
2017-09-13T06:00:26.703Z,14.59
2017-09-13T06:01:26.082Z,14.62
2017-09-13T06:02:26.418Z,14.59
2017-09-13T06:03:26.439Z,14.59
2017-09-13T06:04:26.784Z,14.6
2017-09-13T06:05:26.475Z,14.63
2017-09-13T06:06:26.494Z,14.68
2017-09-13T06:07:26.855Z,14.68
2017-09-13T06:08:26.532Z,14.69
2017-09-13T06:09:26.868Z,14.7
2017-09-13T06:10:26.939Z,14.69
2017-09-13T06:11:26.596Z,14.72
2017-09-13T06:12:26.789Z,14.69
2017-09-13T06:13:26.807Z,14.73
2017-09-13T06:14:27.121Z,14.78
2017-09-13T06:15:27.117Z,14.72
2017-09-13T06:16:26.880Z,14.72
2017-09-13T06:17:26.790Z,14.77
2017-09-13T06:18:26.556Z,14.79
2017-09-13T06:19:26.876Z,14.78
2017-09-13T06:20:27.094Z,14.81
2017-09-13T06:21:26.445Z,14.7
2017-09-13T06:22:27.115Z,14.77
2017-09-13T06:23:27.129Z,14.79
2017-09-13T06:24:26.837Z,14.78
2017-09-13T06:25:27.728Z,14.81
2017-09-13T06:26:26.876Z,14.85
2017-09-13T06:27:26.886Z,14.82
2017-09-13T06:28:27.235Z,14.84
2017-09-13T06:29:27.243Z,14.77
2017-09-13T06:30:26.942Z,14.84
2017-09-13T06:31:26.958Z,14.79
2017-09-13T06:32:26.984Z,14.84
2017-09-13T06:33:27.423Z,14.78
2017-09-13T06:34:27.023Z,14.81
2017-09-13T06:35:27.137Z,14.92
2017-09-13T06:36:27.447Z,14.77
2017-09-13T06:37:27.389Z,14.79
2017-09-13T06:38:27.084Z,14.85
2017-09-13T06:39:27.440Z,14.81
2017-09-13T06:40:27.119Z,14.85
2017-09-13T06:41:27.582Z,14.84
2017-09-13T06:42:27.165Z,14.82
2017-09-13T06:43:27.175Z,14.79
2017-09-13T06:44:27.193Z,14.84
2017-09-13T06:45:27.540Z,14.82
2017-09-13T06:46:27.361Z,14.92
2017-09-13T06:47:27.693Z,14.85
2017-09-13T06:48:27.683Z,14.94
2017-09-13T06:49:27.713Z,14.91
2017-09-13T06:50:27.400Z,14.94
2017-09-13T06:51:27.537Z,14.96
2017-09-13T06:52:27.430Z,14.94
2017-09-13T06:53:27.039Z,15.02
2017-09-13T06:54:27.061Z,14.94
2017-09-13T06:55:27.078Z,14.97
2017-09-13T06:56:28.080Z,14.97
2017-09-13T06:57:28.128Z,15.02
2017-09-13T06:58:27.956Z,15.02
2017-09-13T06:59:27.954Z,15.02
2017-09-13T07:00:27.640Z,15.02
2017-09-13T07:01:27.189Z,15.03
2017-09-13T07:02:27.951Z,15.06
2017-09-13T07:03:27.636Z,15.07
2017-09-13T07:04:27.960Z,15.04
2017-09-13T07:05:27.997Z,15.06
2017-09-13T07:06:27.813Z,15.03
2017-09-13T07:07:27.699Z,15.14
2017-09-13T07:08:28.028Z,15.09
2017-09-13T07:09:28.023Z,15.02
2017-09-13T07:10:27.710Z,15.11
2017-09-13T07:11:28.064Z,15.1
2017-09-13T07:12:28.051Z,15.02
2017-09-13T07:13:28.069Z,15.09
2017-09-13T07:14:28.088Z,15.11
2017-09-13T07:15:27.778Z,15.06
2017-09-13T07:16:28.119Z,15.06
2017-09-13T07:17:27.814Z,15.15
2017-09-13T07:18:28.160Z,15.14
2017-09-13T07:19:28.176Z,15.15
2017-09-13T07:20:27.642Z,15.09
2017-09-13T07:21:27.959Z,15.1
2017-09-13T07:22:27.684Z,15.15
2017-09-13T07:23:28.010Z,15.17
2017-09-13T07:24:28.273Z,15.15
2017-09-13T07:25:28.287Z,15.14
2017-09-13T07:26:27.986Z,15.1
2017-09-13T07:27:28.333Z,15.09
2017-09-13T07:28:28.028Z,15.14
2017-09-13T07:29:28.360Z,15.07
2017-09-13T07:30:28.384Z,15.14
2017-09-13T07:31:27.820Z,15.17
2017-09-13T07:32:28.425Z,15.17
2017-09-13T07:33:28.140Z,15.06
2017-09-13T07:34:28.142Z,15.18
2017-09-13T07:35:28.160Z,15.07
2017-09-13T07:36:28.501Z,15.04
2017-09-13T07:37:28.194Z,15.15
2017-09-13T07:38:28.533Z,15.11
2017-09-13T07:39:28.234Z,15.18
2017-09-13T07:40:28.257Z,15.19
2017-09-13T07:41:28.271Z,15.18
2017-09-13T07:42:28.288Z,15.04
2017-09-13T07:43:28.306Z,15.17
2017-09-13T07:44:28.664Z,15.14
2017-09-13T07:45:28.341Z,15.11
2017-09-13T07:46:28.363Z,15.07
2017-09-13T07:47:28.058Z,15.15
2017-09-13T07:48:28.404Z,15.18
2017-09-13T07:49:28.098Z,15.1
2017-09-13T07:50:28.437Z,15.06
2017-09-13T07:51:28.455Z,15.19
2017-09-13T07:52:28.474Z,15.14
2017-09-13T07:53:28.823Z,15.15
2017-09-13T07:54:28.535Z,15.15
2017-09-13T07:55:28.869Z,15.19
2017-09-13T07:56:28.882Z,15.19
2017-09-13T07:57:28.575Z,15.25
2017-09-13T07:58:28.269Z,15.24
2017-09-13T07:59:28.299Z,15.22
2017-09-13T08:00:28.321Z,15.17
2017-09-13T08:01:28.985Z,15.21
2017-09-13T08:02:28.684Z,15.14
2017-09-13T08:03:29.004Z,15.24
2017-09-13T08:04:29.028Z,15.21
2017-09-13T08:05:28.731Z,15.22
2017-09-13T08:06:28.422Z,15.21
2017-09-13T08:07:28.762Z,15.11
2017-09-13T08:08:28.778Z,15.19
2017-09-13T08:09:28.796Z,15.21
2017-09-13T08:10:29.144Z,15.21
2017-09-13T08:11:29.164Z,15.19
2017-09-13T08:12:28.532Z,15.22
2017-09-13T08:13:28.880Z,15.17
2017-09-13T08:14:28.896Z,15.25
2017-09-13T08:15:29.239Z,15.15
2017-09-13T08:16:28.609Z,15.17
2017-09-13T08:17:29.270Z,15.28
2017-09-13T08:18:29.291Z,15.29
2017-09-13T08:19:29.316Z,15.29
2017-09-13T08:20:29.332Z,15.25
2017-09-13T08:21:28.703Z,15.35
2017-09-13T08:22:28.721Z,15.39
2017-09-13T08:23:29.385Z,15.37
2017-09-13T08:24:29.094Z,15.39
2017-09-13T08:25:29.107Z,15.35
2017-09-13T08:26:29.443Z,15.39
2017-09-13T08:27:29.145Z,15.42
2017-09-13T08:28:29.491Z,15.35
2017-09-13T08:29:28.858Z,15.37
2017-09-13T08:30:29.199Z,15.39
2017-09-13T08:31:29.220Z,15.42
2017-09-13T08:32:29.609Z,15.35
2017-09-13T08:33:29.260Z,15.42
2017-09-13T08:34:29.280Z,15.44
2017-09-13T08:35:29.425Z,15.46
2017-09-13T08:36:29.424Z,15.47
2017-09-13T08:37:29.420Z,15.46
2017-09-13T08:38:29.449Z,15.54
2017-09-13T08:39:29.047Z,15.51
2017-09-13T08:40:29.389Z,15.57
2017-09-13T08:41:29.776Z,15.59
2017-09-13T08:42:29.778Z,15.64
2017-09-13T08:43:29.771Z,15.68
2017-09-13T08:44:29.469Z,15.62
2017-09-13T08:45:29.164Z,15.65
2017-09-13T08:46:29.503Z,15.61
2017-09-13T08:47:29.201Z,15.68
2017-09-13T08:48:29.220Z,15.72
2017-09-13T08:49:29.367Z,15.72
2017-09-13T08:50:29.672Z,15.75
2017-09-13T08:51:30.010Z,15.77
2017-09-13T08:52:30.038Z,15.84
2017-09-13T08:53:30.054Z,15.77
2017-09-13T08:54:29.426Z,15.84
2017-09-13T08:55:29.908Z,15.91
2017-09-13T08:56:30.029Z,15.9
2017-09-13T08:57:30.055Z,15.94
2017-09-13T08:58:30.088Z,15.92
2017-09-13T08:59:29.758Z,15.98
2017-09-13T09:00:29.771Z,15.98
2017-09-13T09:01:30.128Z,15.95
2017-09-13T09:02:30.139Z,16.09
2017-09-13T09:03:30.160Z,16.15
2017-09-13T09:04:29.928Z,16.09
2017-09-13T09:05:30.188Z,16.16
2017-09-13T09:06:29.922Z,16.16
2017-09-13T09:07:29.922Z,16.24
2017-09-13T09:08:30.251Z,16.23
2017-09-13T09:09:29.626Z,16.35
2017-09-13T09:10:30.294Z,16.36
2017-09-13T09:11:29.997Z,16.41
2017-09-13T09:12:30.336Z,16.49
2017-09-13T09:13:30.024Z,16.42
2017-09-13T09:14:30.041Z,16.5
2017-09-13T09:15:30.070Z,16.57
2017-09-13T09:16:29.762Z,16.61
2017-09-13T09:17:29.781Z,16.64
2017-09-13T09:18:30.130Z,16.61
2017-09-13T09:19:30.154Z,16.76
2017-09-13T09:20:30.330Z,16.86
2017-09-13T09:21:30.649Z,16.84
2017-09-13T09:22:29.875Z,16.86
2017-09-13T09:23:30.326Z,16.91
2017-09-13T09:24:30.465Z,16.89
2017-09-13T09:25:30.776Z,16.99
2017-09-13T09:26:29.959Z,17.02
2017-09-13T09:27:30.793Z,17.04
2017-09-13T09:28:30.788Z,17.14
2017-09-13T09:29:30.787Z,17.22
2017-09-13T09:30:30.157Z,17.24
2017-09-13T09:31:30.472Z,17.22
2017-09-13T09:32:30.491Z,17.41
2017-09-13T09:33:30.647Z,17.39
2017-09-13T09:34:30.867Z,17.44
2017-09-13T09:35:30.984Z,17.49
2017-09-13T09:36:30.535Z,17.57
2017-09-13T09:37:30.648Z,17.71
2017-09-13T09:38:30.339Z,17.72
2017-09-13T09:39:30.671Z,17.74
2017-09-13T09:40:30.560Z,17.76
2017-09-13T09:41:30.790Z,17.87
2017-09-13T09:42:31.062Z,17.87
2017-09-13T09:43:30.937Z,17.9
2017-09-13T09:44:30.482Z,17.94
2017-09-13T09:45:30.980Z,18.03
2017-09-13T09:46:31.204Z,18.07
2017-09-13T09:47:31.205Z,18.11
2017-09-13T09:48:31.040Z,18.33
2017-09-13T09:49:30.838Z,18.38
2017-09-13T09:50:30.766Z,18.5
2017-09-13T09:51:30.869Z,18.52
2017-09-13T09:52:30.870Z,18.6
2017-09-13T09:53:30.873Z,18.75
2017-09-13T09:54:31.161Z,18.74
2017-09-13T09:55:30.877Z,18.8
2017-09-13T09:56:31.202Z,18.78
2017-09-13T09:57:30.903Z,18.83
2017-09-13T09:58:31.248Z,18.9
2017-09-13T09:59:31.277Z,18.84
2017-09-13T10:00:30.969Z,18.89
2017-09-13T10:01:30.992Z,18.88
2017-09-13T10:02:31.004Z,18.89
2017-09-13T10:03:31.023Z,18.89
2017-09-13T10:04:31.365Z,18.89
2017-09-13T10:05:30.742Z,18.93
2017-09-13T10:06:30.765Z,18.86
2017-09-13T10:07:31.106Z,18.86
2017-09-13T10:08:30.808Z,18.88
2017-09-13T10:09:31.149Z,18.86
2017-09-13T10:10:31.169Z,18.84
2017-09-13T10:11:31.191Z,18.78
2017-09-13T10:12:31.211Z,18.77
2017-09-13T10:13:31.233Z,18.83
2017-09-13T10:14:31.575Z,18.81
2017-09-13T10:15:31.600Z,18.75
2017-09-13T10:16:31.617Z,18.81
2017-09-13T10:17:30.991Z,18.77
2017-09-13T10:18:31.016Z,18.83
2017-09-13T10:19:31.690Z,18.8
2017-09-13T10:20:31.703Z,18.75
2017-09-13T10:21:31.401Z,18.73
2017-09-13T10:22:31.416Z,18.74
2017-09-13T10:23:31.766Z,18.78
2017-09-13T10:24:31.462Z,18.73
2017-09-13T10:25:31.159Z,18.68
2017-09-13T10:26:31.178Z,18.7
2017-09-13T10:27:31.522Z,18.7
2017-09-13T10:28:31.871Z,18.6
2017-09-13T10:29:31.895Z,18.6
2017-09-13T10:30:31.589Z,18.65
2017-09-13T10:31:31.604Z,18.63
2017-09-13T10:32:31.950Z,18.55
2017-09-13T10:33:31.648Z,18.62
2017-09-13T10:34:31.345Z,18.53
2017-09-13T10:35:31.690Z,18.56
2017-09-13T10:36:31.392Z,18.53
2017-09-13T10:37:31.407Z,18.47
2017-09-13T10:38:31.752Z,18.53
2017-09-13T10:39:31.772Z,18.43
2017-09-13T10:40:31.824Z,18.55
2017-09-13T10:41:31.813Z,18.55
2017-09-13T10:42:32.042Z,18.5
2017-09-13T10:43:31.856Z,18.55
2017-09-13T10:44:31.889Z,18.59
2017-09-13T10:45:31.900Z,18.53
2017-09-13T10:46:32.274Z,18.56
2017-09-13T10:47:31.620Z,18.5
2017-09-13T10:48:31.964Z,18.53
2017-09-13T10:49:32.304Z,18.53
2017-09-13T10:50:32.011Z,18.63
2017-09-13T10:51:31.725Z,18.55
2017-09-13T10:52:32.379Z,18.63
2017-09-13T10:53:32.072Z,18.66
2017-09-13T10:54:32.406Z,18.73
2017-09-13T10:55:32.448Z,18.77
2017-09-13T10:56:31.820Z,18.7
2017-09-13T10:57:31.826Z,18.73
2017-09-13T10:58:31.852Z,18.75
2017-09-13T10:59:31.871Z,18.73
2017-09-13T11:00:32.220Z,18.7
2017-09-13T11:01:32.617Z,18.73
2017-09-13T11:02:31.962Z,18.7
2017-09-13T11:03:32.737Z,18.74
2017-09-13T11:04:32.440Z,18.75
2017-09-13T11:05:32.742Z,18.78
2017-09-13T11:06:32.775Z,18.8
2017-09-13T11:07:32.038Z,18.78
2017-09-13T11:08:32.066Z,18.73
2017-09-13T11:09:32.413Z,18.8
2017-09-13T11:10:32.229Z,18.84
2017-09-13T11:11:32.865Z,18.81
2017-09-13T11:12:32.892Z,18.86
2017-09-13T11:13:32.742Z,18.89
2017-09-13T11:14:33.017Z,18.9
2017-09-13T11:15:32.744Z,18.89
2017-09-13T11:16:33.075Z,18.88
2017-09-13T11:17:32.745Z,18.95
2017-09-13T11:18:32.432Z,18.9
2017-09-13T11:19:32.721Z,19.02
2017-09-13T11:20:33.069Z,18.93
2017-09-13T11:21:33.079Z,18.99
2017-09-13T11:22:32.899Z,19.07
2017-09-13T11:23:33.121Z,19.09
2017-09-13T11:24:32.932Z,19.04
2017-09-13T11:25:32.528Z,19.16
2017-09-13T11:26:33.427Z,19.18
2017-09-13T11:27:33.227Z,19.27
2017-09-13T11:28:32.852Z,19.3
2017-09-13T11:29:32.850Z,19.37
2017-09-13T11:30:33.187Z,19.4
2017-09-13T11:31:32.869Z,19.26
2017-09-13T11:32:33.234Z,19.44
2017-09-13T11:33:32.911Z,19.39
2017-09-13T11:34:32.641Z,19.47
2017-09-13T11:35:33.347Z,19.39
2017-09-13T11:36:33.306Z,19.52
2017-09-13T11:37:33.321Z,19.52
2017-09-13T11:38:32.703Z,19.48
2017-09-13T11:39:33.367Z,19.62
2017-09-13T11:40:33.402Z,19.64
2017-09-13T11:41:33.407Z,19.69
2017-09-13T11:42:33.107Z,19.7
2017-09-13T11:43:32.812Z,19.85
2017-09-13T11:44:32.826Z,19.86
2017-09-13T11:45:33.169Z,19.91
2017-09-13T11:46:32.875Z,20
2017-09-13T11:47:32.892Z,20.07
2017-09-13T11:48:32.914Z,20.03
2017-09-13T11:49:33.585Z,20.18
2017-09-13T11:50:33.283Z,20.18
2017-09-13T11:51:33.309Z,20.25
2017-09-13T11:52:32.998Z,20.29
2017-09-13T11:53:33.669Z,20.22
2017-09-13T11:54:33.370Z,20.28
2017-09-13T11:55:33.063Z,20.24
2017-09-13T11:56:33.406Z,20.32
2017-09-13T11:57:33.426Z,20.25
2017-09-13T11:58:33.458Z,20.28
2017-09-13T11:59:33.479Z,20.32
2017-09-13T12:00:33.502Z,20.28
2017-09-13T12:01:33.843Z,20.29
2017-09-13T12:02:33.540Z,20.31
2017-09-13T12:03:33.566Z,20.32
2017-09-13T12:04:33.921Z,20.32
2017-09-13T12:05:33.607Z,20.4
2017-09-13T12:06:33.303Z,20.28
2017-09-13T12:07:33.648Z,20.28
2017-09-13T12:08:33.667Z,20.36
2017-09-13T12:09:34.018Z,20.31
2017-09-13T12:10:33.712Z,20.28
2017-09-13T12:11:34.060Z,20.31
2017-09-13T12:12:33.763Z,20.25
2017-09-13T12:13:33.781Z,20.26
2017-09-13T12:14:33.798Z,20.24
2017-09-13T12:15:33.827Z,20.28
2017-09-13T12:16:34.172Z,20.36
2017-09-13T12:17:33.868Z,20.4
2017-09-13T12:18:34.211Z,20.4
2017-09-13T12:19:33.916Z,20.39
2017-09-13T12:20:33.935Z,20.36
2017-09-13T12:21:34.283Z,20.39
2017-09-13T12:22:33.985Z,20.37
2017-09-13T12:23:34.323Z,20.52
2017-09-13T12:24:34.020Z,20.43
2017-09-13T12:25:34.051Z,20.44
2017-09-13T12:26:34.069Z,20.47
2017-09-13T12:27:34.414Z,20.47
2017-09-13T12:28:33.788Z,20.59
2017-09-13T12:29:33.814Z,20.59
2017-09-13T12:30:33.833Z,20.63
2017-09-13T12:31:34.174Z,20.63
2017-09-13T12:32:34.199Z,20.72
2017-09-13T12:33:33.893Z,20.77
2017-09-13T12:34:34.241Z,20.78
2017-09-13T12:35:34.264Z,20.84
2017-09-13T12:36:33.962Z,20.87
2017-09-13T12:37:34.310Z,20.93
2017-09-13T12:38:34.330Z,20.9
2017-09-13T12:39:34.030Z,21.11
2017-09-13T12:40:34.052Z,21.09
2017-09-13T12:41:34.402Z,21.14
2017-09-13T12:42:34.417Z,21.18
2017-09-13T12:43:34.763Z,21.18
2017-09-13T12:44:34.791Z,21.21
2017-09-13T12:45:34.812Z,21.22
2017-09-13T12:46:34.191Z,21.24
2017-09-13T12:47:34.212Z,21.25
2017-09-13T12:48:34.884Z,21.32
2017-09-13T12:49:34.802Z,21.32
2017-09-13T12:50:34.600Z,21.27
2017-09-13T12:51:34.302Z,21.37
2017-09-13T12:52:34.974Z,21.4
2017-09-13T12:53:34.997Z,21.25
2017-09-13T12:54:34.692Z,21.4
2017-09-13T12:55:35.044Z,21.35
2017-09-13T12:56:34.737Z,21.42